sensor_id;sensor_type;location;lat;lon;timestamp;P1;durP1;ratioP1;P2;durP2;ratioP2
46845;SDS011;33947;46.804;134.252;2023-12-22T00:00:50;13.40;;;6.53;;
46845;SDS011;33947;46.804;134.252;2023-12-22T00:03:58;8.00;;;7.32;;
46845;SDS011;33947;46.804;134.252;2023-12-22T00:07:06;10.43;;;9.43;;
46845;SDS011;33947;46.804;134.252;2023-12-22T00:10:14;8.55;;;7.95;;
46845;SDS011;33947;46.804;134.252;2023-12-22T00:13:23;9.63;;;6.72;;
46845;SDS011;33947;46.804;134.252;2023-12-22T00:16:30;6.38;;;5.97;;
46845;SDS011;33947;46.804;134.252;2023-12-22T00:19:37;6.95;;;5.75;;
46845;SDS011;33947;46.804;134.252;2023-12-22T00:22:44;12.75;;;10.38;;
46845;SDS011;33947;46.804;134.252;2023-12-22T00:25:54;11.43;;;10.10;;
46845;SDS011;33947;46.804;134.252;2023-12-22T00:29:07;3.65;;;3.40;;
46845;SDS011;33947;46.804;134.252;2023-12-22T00:32:14;3.95;;;3.65;;
46845;SDS011;33947;46.804;134.252;2023-12-22T00:35:26;17.08;;;7.55;;
46845;SDS011;33947;46.804;134.252;2023-12-22T00:38:33;10.77;;;6.45;;
46845;SDS011;33947;46.804;134.252;2023-12-22T00:41:45;8.15;;;5.60;;
46845;SDS011;33947;46.804;134.252;2023-12-22T00:44:58;8.85;;;7.90;;
46845;SDS011;33947;46.804;134.252;2023-12-22T00:48:05;5.13;;;4.60;;
46845;SDS011;33947;46.804;134.252;2023-12-22T00:51:12;2.80;;;2.65;;
46845;SDS011;33947;46.804;134.252;2023-12-22T00:54:23;7.22;;;4.93;;
46845;SDS011;33947;46.804;134.252;2023-12-22T00:57:31;13.02;;;5.35;;
46845;SDS011;33947;46.804;134.252;2023-12-22T01:00:43;32.65;;;17.35;;
46845;SDS011;33947;46.804;134.252;2023-12-22T01:07:07;5.55;;;4.28;;
46845;SDS011;33947;46.804;134.252;2023-12-22T01:10:20;23.98;;;7.20;;
46845;SDS011;33947;46.804;134.252;2023-12-22T01:13:28;10.20;;;9.18;;
46845;SDS011;33947;46.804;134.252;2023-12-22T01:16:40;7.68;;;6.93;;
46845;SDS011;33947;46.804;134.252;2023-12-22T01:19:51;10.77;;;7.78;;
46845;SDS011;33947;46.804;134.252;2023-12-22T01:23:01;27.27;;;11.13;;
46845;SDS011;33947;46.804;134.252;2023-12-22T01:26:08;15.05;;;4.93;;
46845;SDS011;33947;46.804;134.252;2023-12-22T01:29:15;4.07;;;3.85;;
46845;SDS011;33947;46.804;134.252;2023-12-22T01:32:28;9.38;;;8.13;;
46845;SDS011;33947;46.804;134.252;2023-12-22T01:35:41;3.70;;;3.42;;
46845;SDS011;33947;46.804;134.252;2023-12-22T01:38:48;16.17;;;4.68;;
46845;SDS011;33947;46.804;134.252;2023-12-22T01:41:55;34.22;;;15.65;;
46845;SDS011;33947;46.804;134.252;2023-12-22T01:45:03;4.25;;;2.72;;
46845;SDS011;33947;46.804;134.252;2023-12-22T01:48:13;6.32;;;4.82;;
46845;SDS011;33947;46.804;134.252;2023-12-22T01:51:29;15.18;;;7.82;;
46845;SDS011;33947;46.804;134.252;2023-12-22T01:54:37;21.80;;;10.32;;
46845;SDS011;33947;46.804;134.252;2023-12-22T01:57:44;32.72;;;13.98;;
46845;SDS011;33947;46.804;134.252;2023-12-22T02:00:56;20.58;;;8.52;;
46845;SDS011;33947;46.804;134.252;2023-12-22T02:04:08;24.80;;;12.52;;
46845;SDS011;33947;46.804;134.252;2023-12-22T02:07:16;20.23;;;10.65;;
46845;SDS011;33947;46.804;134.252;2023-12-22T02:10:23;15.27;;;7.78;;
46845;SDS011;33947;46.804;134.252;2023-12-22T02:13:33;27.75;;;10.15;;
46845;SDS011;33947;46.804;134.252;2023-12-22T02:16:46;22.25;;;9.20;;
46845;SDS011;33947;46.804;134.252;2023-12-22T02:20:01;55.28;;;7.55;;
46845;SDS011;33947;46.804;134.252;2023-12-22T02:23:11;20.08;;;8.73;;
46845;SDS011;33947;46.804;134.252;2023-12-22T02:26:20;21.38;;;9.80;;
46845;SDS011;33947;46.804;134.252;2023-12-22T02:29:41;11.65;;;4.85;;
46845;SDS011;33947;46.804;134.252;2023-12-22T02:32:56;24.73;;;10.13;;
46845;SDS011;33947;46.804;134.252;2023-12-22T02:36:08;18.35;;;8.35;;
46845;SDS011;33947;46.804;134.252;2023-12-22T02:39:18;16.02;;;7.65;;
46845;SDS011;33947;46.804;134.252;2023-12-22T02:42:26;18.80;;;10.15;;
46845;SDS011;33947;46.804;134.252;2023-12-22T02:45:37;13.75;;;6.10;;
46845;SDS011;33947;46.804;134.252;2023-12-22T02:48:47;18.60;;;9.48;;
46845;SDS011;33947;46.804;134.252;2023-12-22T02:51:57;12.02;;;5.95;;
46845;SDS011;33947;46.804;134.252;2023-12-22T02:55:06;17.05;;;8.38;;
46845;SDS011;33947;46.804;134.252;2023-12-22T02:58:17;19.33;;;10.15;;
46845;SDS011;33947;46.804;134.252;2023-12-22T03:01:24;26.88;;;10.05;;
46845;SDS011;33947;46.804;134.252;2023-12-22T03:04:32;18.48;;;8.02;;
46845;SDS011;33947;46.804;134.252;2023-12-22T03:07:39;15.38;;;7.95;;
46845;SDS011;33947;46.804;134.252;2023-12-22T03:10:48;19.05;;;7.78;;
46845;SDS011;33947;46.804;134.252;2023-12-22T03:13:56;24.77;;;9.25;;
46845;SDS011;33947;46.804;134.252;2023-12-22T03:17:15;22.58;;;10.00;;
46845;SDS011;33947;46.804;134.252;2023-12-22T03:20:24;29.73;;;11.23;;
46845;SDS011;33947;46.804;134.252;2023-12-22T03:23:33;23.75;;;9.55;;
46845;SDS011;33947;46.804;134.252;2023-12-22T03:26:46;58.58;;;18.75;;
46845;SDS011;33947;46.804;134.252;2023-12-22T03:30:08;49.70;;;15.50;;
46845;SDS011;33947;46.804;134.252;2023-12-22T03:33:18;13.40;;;6.22;;
46845;SDS011;33947;46.804;134.252;2023-12-22T03:36:26;90.20;;;26.95;;
46845;SDS011;33947;46.804;134.252;2023-12-22T03:39:35;13.23;;;5.90;;
46845;SDS011;33947;46.804;134.252;2023-12-22T03:42:44;29.83;;;12.40;;
46845;SDS011;33947;46.804;134.252;2023-12-22T03:45:52;122.03;;;33.30;;
46845;SDS011;33947;46.804;134.252;2023-12-22T03:49:05;33.17;;;13.40;;
46845;SDS011;33947;46.804;134.252;2023-12-22T03:52:15;15.80;;;7.00;;
46845;SDS011;33947;46.804;134.252;2023-12-22T03:55:27;10.73;;;5.38;;
46845;SDS011;33947;46.804;134.252;2023-12-22T04:03:28;22.67;;;10.00;;
46845;SDS011;33947;46.804;134.252;2023-12-22T04:07:45;28.45;;;12.02;;
46845;SDS011;33947;46.804;134.252;2023-12-22T04:12:17;5.40;;;3.60;;
46845;SDS011;33947;46.804;134.252;2023-12-22T04:18:15;11.15;;;4.82;;
46845;SDS011;33947;46.804;134.252;2023-12-22T04:21:27;26.02;;;10.82;;
46845;SDS011;33947;46.804;134.252;2023-12-22T04:25:22;5.53;;;2.85;;
46845;SDS011;33947;46.804;134.252;2023-12-22T04:28:37;10.10;;;6.72;;
46845;SDS011;33947;46.804;134.252;2023-12-22T04:31:49;16.63;;;6.65;;
46845;SDS011;33947;46.804;134.252;2023-12-22T04:35:14;26.30;;;10.65;;
46845;SDS011;33947;46.804;134.252;2023-12-22T04:38:33;14.07;;;7.15;;
46845;SDS011;33947;46.804;134.252;2023-12-22T04:41:54;23.33;;;7.10;;
46845;SDS011;33947;46.804;134.252;2023-12-22T04:45:02;7.47;;;5.00;;
46845;SDS011;33947;46.804;134.252;2023-12-22T04:48:16;12.27;;;6.68;;
46845;SDS011;33947;46.804;134.252;2023-12-22T04:51:28;15.48;;;4.53;;
46845;SDS011;33947;46.804;134.252;2023-12-22T04:54:37;26.52;;;11.30;;
46845;SDS011;33947;46.804;134.252;2023-12-22T04:57:54;24.10;;;9.30;;
46845;SDS011;33947;46.804;134.252;2023-12-22T05:04:39;20.88;;;9.15;;
46845;SDS011;33947;46.804;134.252;2023-12-22T05:07:47;28.58;;;10.10;;
46845;SDS011;33947;46.804;134.252;2023-12-22T05:10:56;11.98;;;7.18;;
46845;SDS011;33947;46.804;134.252;2023-12-22T05:14:03;17.55;;;9.80;;
46845;SDS011;33947;46.804;134.252;2023-12-22T05:17:11;28.35;;;10.90;;
46845;SDS011;33947;46.804;134.252;2023-12-22T05:20:18;31.25;;;12.05;;
46845;SDS011;33947;46.804;134.252;2023-12-22T05:23:26;18.75;;;8.48;;
46845;SDS011;33947;46.804;134.252;2023-12-22T05:26:36;15.10;;;6.97;;
46845;SDS011;33947;46.804;134.252;2023-12-22T05:29:44;20.55;;;8.65;;
46845;SDS011;33947;46.804;134.252;2023-12-22T05:32:51;12.05;;;6.03;;
46845;SDS011;33947;46.804;134.252;2023-12-22T05:35:59;29.80;;;11.70;;
46845;SDS011;33947;46.804;134.252;2023-12-22T05:39:07;12.45;;;7.38;;
46845;SDS011;33947;46.804;134.252;2023-12-22T05:42:16;16.05;;;6.32;;
46845;SDS011;33947;46.804;134.252;2023-12-22T05:45:24;22.02;;;9.73;;
46845;SDS011;33947;46.804;134.252;2023-12-22T05:48:31;17.20;;;8.13;;
46845;SDS011;33947;46.804;134.252;2023-12-22T05:51:40;29.30;;;12.90;;
46845;SDS011;33947;46.804;134.252;2023-12-22T05:54:47;21.33;;;13.07;;
46845;SDS011;33947;46.804;134.252;2023-12-22T05:57:56;25.15;;;9.40;;
46845;SDS011;33947;46.804;134.252;2023-12-22T06:01:03;40.47;;;17.05;;
46845;SDS011;33947;46.804;134.252;2023-12-22T06:07:41;30.35;;;14.32;;
46845;SDS011;33947;46.804;134.252;2023-12-22T06:10:48;29.67;;;10.23;;
46845;SDS011;33947;46.804;134.252;2023-12-22T06:13:58;14.30;;;8.70;;
46845;SDS011;33947;46.804;134.252;2023-12-22T06:17:05;6.22;;;5.15;;
46845;SDS011;33947;46.804;134.252;2023-12-22T06:20:13;39.47;;;16.52;;
46845;SDS011;33947;46.804;134.252;2023-12-22T06:23:21;18.30;;;9.45;;
46845;SDS011;33947;46.804;134.252;2023-12-22T06:26:29;23.50;;;10.15;;
46845;SDS011;33947;46.804;134.252;2023-12-22T06:29:39;14.43;;;6.65;;
46845;SDS011;33947;46.804;134.252;2023-12-22T06:32:46;25.35;;;11.82;;
46845;SDS011;33947;46.804;134.252;2023-12-22T06:35:53;24.67;;;10.48;;
46845;SDS011;33947;46.804;134.252;2023-12-22T06:39:00;16.63;;;9.15;;
46845;SDS011;33947;46.804;134.252;2023-12-22T06:42:09;24.77;;;10.27;;
46845;SDS011;33947;46.804;134.252;2023-12-22T06:45:21;19.52;;;9.50;;
46845;SDS011;33947;46.804;134.252;2023-12-22T06:48:28;13.38;;;7.30;;
46845;SDS011;33947;46.804;134.252;2023-12-22T06:51:36;15.88;;;7.85;;
46845;SDS011;33947;46.804;134.252;2023-12-22T06:54:46;17.77;;;7.63;;
46845;SDS011;33947;46.804;134.252;2023-12-22T06:57:53;35.72;;;11.48;;
46845;SDS011;33947;46.804;134.252;2023-12-22T07:01:02;23.38;;;10.35;;
46845;SDS011;33947;46.804;134.252;2023-12-22T07:04:10;22.20;;;9.90;;
46845;SDS011;33947;46.804;134.252;2023-12-22T07:07:18;18.50;;;8.40;;
46845;SDS011;33947;46.804;134.252;2023-12-22T07:10:25;38.83;;;13.18;;
46845;SDS011;33947;46.804;134.252;2023-12-22T07:13:32;31.73;;;10.65;;
46845;SDS011;33947;46.804;134.252;2023-12-22T07:16:41;13.23;;;8.07;;
46845;SDS011;33947;46.804;134.252;2023-12-22T07:19:49;14.50;;;8.27;;
46845;SDS011;33947;46.804;134.252;2023-12-22T07:22:58;26.10;;;9.35;;
46845;SDS011;33947;46.804;134.252;2023-12-22T07:26:05;17.85;;;6.57;;
46845;SDS011;33947;46.804;134.252;2023-12-22T07:29:15;17.35;;;8.80;;
46845;SDS011;33947;46.804;134.252;2023-12-22T07:32:24;20.08;;;9.35;;
46845;SDS011;33947;46.804;134.252;2023-12-22T07:35:36;22.33;;;9.80;;
46845;SDS011;33947;46.804;134.252;2023-12-22T07:38:44;22.40;;;12.43;;
46845;SDS011;33947;46.804;134.252;2023-12-22T07:41:56;14.80;;;7.68;;
46845;SDS011;33947;46.804;134.252;2023-12-22T07:45:03;21.73;;;8.13;;
46845;SDS011;33947;46.804;134.252;2023-12-22T07:48:18;11.50;;;7.10;;
46845;SDS011;33947;46.804;134.252;2023-12-22T07:51:28;24.90;;;12.43;;
46845;SDS011;33947;46.804;134.252;2023-12-22T07:54:37;23.00;;;10.30;;
46845;SDS011;33947;46.804;134.252;2023-12-22T07:57:45;21.08;;;9.88;;
46845;SDS011;33947;46.804;134.252;2023-12-22T08:00:53;17.27;;;8.50;;
46845;SDS011;33947;46.804;134.252;2023-12-22T08:04:04;23.58;;;11.40;;
46845;SDS011;33947;46.804;134.252;2023-12-22T08:07:11;51.97;;;19.67;;
46845;SDS011;33947;46.804;134.252;2023-12-22T08:10:18;53.63;;;18.95;;
46845;SDS011;33947;46.804;134.252;2023-12-22T08:13:26;29.77;;;12.07;;
46845;SDS011;33947;46.804;134.252;2023-12-22T08:16:33;63.03;;;20.52;;
46845;SDS011;33947;46.804;134.252;2023-12-22T08:19:42;27.02;;;12.13;;
46845;SDS011;33947;46.804;134.252;2023-12-22T08:22:52;29.30;;;13.82;;
46845;SDS011;33947;46.804;134.252;2023-12-22T08:25:59;16.88;;;11.38;;
46845;SDS011;33947;46.804;134.252;2023-12-22T08:29:07;14.10;;;8.85;;
46845;SDS011;33947;46.804;134.252;2023-12-22T08:32:15;26.15;;;11.65;;
46845;SDS011;33947;46.804;134.252;2023-12-22T08:35:25;53.05;;;20.00;;
46845;SDS011;33947;46.804;134.252;2023-12-22T08:38:33;29.52;;;11.48;;
46845;SDS011;33947;46.804;134.252;2023-12-22T08:41:44;17.67;;;9.95;;
46845;SDS011;33947;46.804;134.252;2023-12-22T08:44:52;13.95;;;9.30;;
46845;SDS011;33947;46.804;134.252;2023-12-22T08:47:59;11.00;;;8.75;;
46845;SDS011;33947;46.804;134.252;2023-12-22T08:51:08;31.08;;;13.65;;
46845;SDS011;33947;46.804;134.252;2023-12-22T08:54:15;33.25;;;11.73;;
46845;SDS011;33947;46.804;134.252;2023-12-22T08:57:23;14.18;;;8.00;;
46845;SDS011;33947;46.804;134.252;2023-12-22T09:00:31;19.58;;;10.38;;
46845;SDS011;33947;46.804;134.252;2023-12-22T09:03:38;10.13;;;7.97;;
46845;SDS011;33947;46.804;134.252;2023-12-22T09:06:51;18.67;;;8.95;;
46845;SDS011;33947;46.804;134.252;2023-12-22T09:09:59;29.70;;;12.82;;
46845;SDS011;33947;46.804;134.252;2023-12-22T09:13:10;17.05;;;10.95;;
46845;SDS011;33947;46.804;134.252;2023-12-22T09:16:20;10.68;;;6.43;;
46845;SDS011;33947;46.804;134.252;2023-12-22T09:19:29;14.73;;;7.43;;
46845;SDS011;33947;46.804;134.252;2023-12-22T09:22:45;25.88;;;6.20;;
46845;SDS011;33947;46.804;134.252;2023-12-22T09:25:52;17.25;;;9.30;;
46845;SDS011;33947;46.804;134.252;2023-12-22T09:28:59;18.08;;;9.65;;
46845;SDS011;33947;46.804;134.252;2023-12-22T09:32:06;10.90;;;8.38;;
46845;SDS011;33947;46.804;134.252;2023-12-22T09:35:14;25.65;;;9.77;;
46845;SDS011;33947;46.804;134.252;2023-12-22T09:38:23;18.88;;;8.80;;
46845;SDS011;33947;46.804;134.252;2023-12-22T09:41:32;29.00;;;13.05;;
46845;SDS011;33947;46.804;134.252;2023-12-22T09:44:39;32.47;;;14.88;;
46845;SDS011;33947;46.804;134.252;2023-12-22T09:47:49;36.75;;;14.20;;
46845;SDS011;33947;46.804;134.252;2023-12-22T09:50:57;21.85;;;9.18;;
46845;SDS011;33947;46.804;134.252;2023-12-22T09:54:10;24.67;;;12.18;;
46845;SDS011;33947;46.804;134.252;2023-12-22T09:57:19;45.50;;;21.77;;
46845;SDS011;33947;46.804;134.252;2023-12-22T10:00:31;33.33;;;13.30;;
46845;SDS011;33947;46.804;134.252;2023-12-22T10:03:39;38.83;;;9.98;;
46845;SDS011;33947;46.804;134.252;2023-12-22T10:06:51;21.95;;;10.77;;
46845;SDS011;33947;46.804;134.252;2023-12-22T10:10:02;25.45;;;14.70;;
46845;SDS011;33947;46.804;134.252;2023-12-22T10:13:11;12.80;;;9.55;;
46845;SDS011;33947;46.804;134.252;2023-12-22T10:16:20;13.70;;;11.30;;
46845;SDS011;33947;46.804;134.252;2023-12-22T10:19:28;30.50;;;16.20;;
46845;SDS011;33947;46.804;134.252;2023-12-22T10:22:39;11.10;;;8.75;;
46845;SDS011;33947;46.804;134.252;2023-12-22T10:26:00;24.77;;;15.15;;
46845;SDS011;33947;46.804;134.252;2023-12-22T10:29:08;12.05;;;10.18;;
46845;SDS011;33947;46.804;134.252;2023-12-22T10:32:16;88.82;;;42.58;;
46845;SDS011;33947;46.804;134.252;2023-12-22T10:35:31;73.35;;;30.05;;
46845;SDS011;33947;46.804;134.252;2023-12-22T10:38:39;119.10;;;39.30;;
46845;SDS011;33947;46.804;134.252;2023-12-22T10:41:52;59.03;;;35.42;;
46845;SDS011;33947;46.804;134.252;2023-12-22T10:48:17;66.32;;;32.17;;
46845;SDS011;33947;46.804;134.252;2023-12-22T10:51:28;37.67;;;20.50;;
46845;SDS011;33947;46.804;134.252;2023-12-22T10:54:37;63.03;;;31.20;;
46845;SDS011;33947;46.804;134.252;2023-12-22T10:57:50;124.47;;;42.42;;
46845;SDS011;33947;46.804;134.252;2023-12-22T11:01:05;144.77;;;48.38;;
46845;SDS011;33947;46.804;134.252;2023-12-22T11:04:13;91.85;;;41.50;;
46845;SDS011;33947;46.804;134.252;2023-12-22T11:07:31;90.25;;;41.42;;
46845;SDS011;33947;46.804;134.252;2023-12-22T11:10:44;64.93;;;33.67;;
46845;SDS011;33947;46.804;134.252;2023-12-22T11:14:01;117.05;;;46.60;;
46845;SDS011;33947;46.804;134.252;2023-12-22T11:17:09;31.55;;;23.38;;
46845;SDS011;33947;46.804;134.252;2023-12-22T11:20:20;67.68;;;30.33;;
46845;SDS011;33947;46.804;134.252;2023-12-22T11:23:31;47.55;;;29.08;;
46845;SDS011;33947;46.804;134.252;2023-12-22T11:26:39;54.35;;;36.17;;
46845;SDS011;33947;46.804;134.252;2023-12-22T11:29:50;83.57;;;38.28;;
46845;SDS011;33947;46.804;134.252;2023-12-22T11:32:57;154.40;;;55.53;;
46845;SDS011;33947;46.804;134.252;2023-12-22T11:36:06;62.75;;;28.80;;
46845;SDS011;33947;46.804;134.252;2023-12-22T11:39:14;45.20;;;31.48;;
46845;SDS011;33947;46.804;134.252;2023-12-22T11:42:23;41.00;;;24.88;;
46845;SDS011;33947;46.804;134.252;2023-12-22T11:45:38;54.38;;;27.70;;
46845;SDS011;33947;46.804;134.252;2023-12-22T11:48:49;56.90;;;26.50;;
46845;SDS011;33947;46.804;134.252;2023-12-22T11:51:57;63.92;;;31.42;;
46845;SDS011;33947;46.804;134.252;2023-12-22T11:55:05;60.58;;;37.25;;
46845;SDS011;33947;46.804;134.252;2023-12-22T12:01:43;23.05;;;13.35;;
46845;SDS011;33947;46.804;134.252;2023-12-22T12:04:50;12.38;;;6.88;;
46845;SDS011;33947;46.804;134.252;2023-12-22T12:08:02;60.60;;;33.78;;
46845;SDS011;33947;46.804;134.252;2023-12-22T12:11:14;66.15;;;30.65;;
46845;SDS011;33947;46.804;134.252;2023-12-22T12:14:26;63.05;;;34.03;;
46845;SDS011;33947;46.804;134.252;2023-12-22T12:17:40;79.70;;;40.60;;
46845;SDS011;33947;46.804;134.252;2023-12-22T12:20:48;90.10;;;35.40;;
46845;SDS011;33947;46.804;134.252;2023-12-22T12:23:56;88.03;;;33.10;;
46845;SDS011;33947;46.804;134.252;2023-12-22T12:27:05;29.52;;;16.02;;
46845;SDS011;33947;46.804;134.252;2023-12-22T12:30:12;49.70;;;25.08;;
46845;SDS011;33947;46.804;134.252;2023-12-22T12:33:22;28.70;;;20.80;;
46845;SDS011;33947;46.804;134.252;2023-12-22T12:36:32;39.35;;;22.58;;
46845;SDS011;33947;46.804;134.252;2023-12-22T12:39:39;45.35;;;22.95;;
46845;SDS011;33947;46.804;134.252;2023-12-22T12:42:49;32.22;;;15.82;;
46845;SDS011;33947;46.804;134.252;2023-12-22T12:46:02;12.73;;;10.63;;
46845;SDS011;33947;46.804;134.252;2023-12-22T12:49:12;26.98;;;11.75;;
46845;SDS011;33947;46.804;134.252;2023-12-22T12:52:20;59.85;;;25.40;;
46845;SDS011;33947;46.804;134.252;2023-12-22T12:55:29;34.95;;;19.17;;
46845;SDS011;33947;46.804;134.252;2023-12-22T12:58:37;25.75;;;19.10;;
46845;SDS011;33947;46.804;134.252;2023-12-22T13:01:47;22.52;;;14.48;;
46845;SDS011;33947;46.804;134.252;2023-12-22T13:04:57;29.20;;;16.48;;
46845;SDS011;33947;46.804;134.252;2023-12-22T13:08:08;51.90;;;23.02;;
46845;SDS011;33947;46.804;134.252;2023-12-22T13:11:19;32.83;;;22.58;;
46845;SDS011;33947;46.804;134.252;2023-12-22T13:14:28;50.92;;;21.60;;
46845;SDS011;33947;46.804;134.252;2023-12-22T13:17:36;41.92;;;20.55;;
46845;SDS011;33947;46.804;134.252;2023-12-22T13:20:46;32.75;;;21.45;;
46845;SDS011;33947;46.804;134.252;2023-12-22T13:27:19;24.55;;;13.77;;
46845;SDS011;33947;46.804;134.252;2023-12-22T13:30:33;40.50;;;14.15;;
46845;SDS011;33947;46.804;134.252;2023-12-22T13:33:42;26.92;;;12.75;;
46845;SDS011;33947;46.804;134.252;2023-12-22T13:36:51;20.60;;;13.98;;
46845;SDS011;33947;46.804;134.252;2023-12-22T13:39:59;21.15;;;14.95;;
46845;SDS011;33947;46.804;134.252;2023-12-22T13:43:06;20.38;;;12.88;;
46845;SDS011;33947;46.804;134.252;2023-12-22T13:46:14;58.10;;;20.63;;
46845;SDS011;33947;46.804;134.252;2023-12-22T13:49:22;42.00;;;17.42;;
46845;SDS011;33947;46.804;134.252;2023-12-22T13:52:35;35.75;;;18.10;;
46845;SDS011;33947;46.804;134.252;2023-12-22T13:55:42;31.38;;;9.48;;
46845;SDS011;33947;46.804;134.252;2023-12-22T13:58:52;27.48;;;12.50;;
46845;SDS011;33947;46.804;134.252;2023-12-22T14:02:00;28.52;;;14.68;;
46845;SDS011;33947;46.804;134.252;2023-12-22T14:05:08;36.17;;;17.83;;
46845;SDS011;33947;46.804;134.252;2023-12-22T14:08:19;43.03;;;27.70;;
46845;SDS011;33947;46.804;134.252;2023-12-22T14:11:26;37.30;;;19.98;;
46845;SDS011;33947;46.804;134.252;2023-12-22T14:14:35;115.47;;;45.63;;
46845;SDS011;33947;46.804;134.252;2023-12-22T14:17:42;65.82;;;26.92;;
46845;SDS011;33947;46.804;134.252;2023-12-22T14:20:49;86.00;;;38.35;;
46845;SDS011;33947;46.804;134.252;2023-12-22T14:24:02;108.72;;;36.97;;
46845;SDS011;33947;46.804;134.252;2023-12-22T14:27:09;50.33;;;26.50;;
46845;SDS011;33947;46.804;134.252;2023-12-22T14:30:22;52.00;;;26.38;;
46845;SDS011;33947;46.804;134.252;2023-12-22T14:33:29;54.05;;;24.52;;
46845;SDS011;33947;46.804;134.252;2023-12-22T14:36:40;21.50;;;12.98;;
46845;SDS011;33947;46.804;134.252;2023-12-22T14:39:50;21.75;;;19.48;;
46845;SDS011;33947;46.804;134.252;2023-12-22T14:42:58;44.28;;;23.98;;
46845;SDS011;33947;46.804;134.252;2023-12-22T14:46:06;53.92;;;25.20;;
46845;SDS011;33947;46.804;134.252;2023-12-22T14:49:13;59.58;;;24.35;;
46845;SDS011;33947;46.804;134.252;2023-12-22T14:52:22;48.67;;;25.63;;
46845;SDS011;33947;46.804;134.252;2023-12-22T14:55:31;24.10;;;10.85;;
46845;SDS011;33947;46.804;134.252;2023-12-22T14:58:38;19.33;;;15.48;;
46845;SDS011;33947;46.804;134.252;2023-12-22T15:01:46;128.88;;;47.67;;
46845;SDS011;33947;46.804;134.252;2023-12-22T15:04:53;229.25;;;104.07;;
46845;SDS011;33947;46.804;134.252;2023-12-22T15:08:05;154.68;;;77.13;;
46845;SDS011;33947;46.804;134.252;2023-12-22T15:11:14;187.50;;;70.68;;
46845;SDS011;33947;46.804;134.252;2023-12-22T15:14:21;48.95;;;30.38;;
46845;SDS011;33947;46.804;134.252;2023-12-22T15:17:28;91.28;;;47.17;;
46845;SDS011;33947;46.804;134.252;2023-12-22T15:20:40;102.82;;;41.42;;
46845;SDS011;33947;46.804;134.252;2023-12-22T15:23:47;102.03;;;47.30;;
46845;SDS011;33947;46.804;134.252;2023-12-22T15:26:57;43.55;;;20.48;;
46845;SDS011;33947;46.804;134.252;2023-12-22T15:30:05;49.92;;;22.02;;
46845;SDS011;33947;46.804;134.252;2023-12-22T15:33:42;53.65;;;25.27;;
46845;SDS011;33947;46.804;134.252;2023-12-22T15:36:52;67.57;;;22.33;;
46845;SDS011;33947;46.804;134.252;2023-12-22T15:40:02;11.63;;;10.35;;
46845;SDS011;33947;46.804;134.252;2023-12-22T15:43:14;33.40;;;13.65;;
46845;SDS011;33947;46.804;134.252;2023-12-22T15:46:23;23.67;;;9.13;;
46845;SDS011;33947;46.804;134.252;2023-12-22T15:49:37;55.90;;;32.43;;
46845;SDS011;33947;46.804;134.252;2023-12-22T15:52:46;45.67;;;27.45;;
46845;SDS011;33947;46.804;134.252;2023-12-22T15:55:55;37.28;;;14.32;;
46845;SDS011;33947;46.804;134.252;2023-12-22T15:59:04;15.77;;;13.13;;
46845;SDS011;33947;46.804;134.252;2023-12-22T16:02:11;12.30;;;8.85;;
46845;SDS011;33947;46.804;134.252;2023-12-22T16:05:19;9.50;;;8.60;;
46845;SDS011;33947;46.804;134.252;2023-12-22T16:08:29;16.52;;;14.00;;
46845;SDS011;33947;46.804;134.252;2023-12-22T16:11:39;11.90;;;10.90;;
46845;SDS011;33947;46.804;134.252;2023-12-22T16:14:51;11.65;;;9.50;;
46845;SDS011;33947;46.804;134.252;2023-12-22T16:18:04;14.85;;;7.97;;
46845;SDS011;33947;46.804;134.252;2023-12-22T16:21:18;24.83;;;13.90;;
46845;SDS011;33947;46.804;134.252;2023-12-22T16:24:28;38.17;;;12.43;;
46845;SDS011;33947;46.804;134.252;2023-12-22T16:27:35;10.93;;;9.85;;
46845;SDS011;33947;46.804;134.252;2023-12-22T16:30:47;8.70;;;8.07;;
46845;SDS011;33947;46.804;134.252;2023-12-22T16:33:56;12.98;;;7.82;;
46845;SDS011;33947;46.804;134.252;2023-12-22T16:37:03;31.13;;;10.60;;
46845;SDS011;33947;46.804;134.252;2023-12-22T16:40:11;17.45;;;9.05;;
46845;SDS011;33947;46.804;134.252;2023-12-22T16:43:24;11.45;;;8.35;;
46845;SDS011;33947;46.804;134.252;2023-12-22T16:46:33;15.32;;;10.32;;
46845;SDS011;33947;46.804;134.252;2023-12-22T16:49:40;17.40;;;11.05;;
46845;SDS011;33947;46.804;134.252;2023-12-22T16:52:50;11.10;;;8.45;;
46845;SDS011;33947;46.804;134.252;2023-12-22T16:55:58;8.38;;;7.05;;
46845;SDS011;33947;46.804;134.252;2023-12-22T16:59:05;10.50;;;7.18;;
46845;SDS011;33947;46.804;134.252;2023-12-22T17:02:16;46.78;;;11.18;;
46845;SDS011;33947;46.804;134.252;2023-12-22T17:05:35;20.33;;;14.77;;
46845;SDS011;33947;46.804;134.252;2023-12-22T17:08:45;30.63;;;16.13;;
46845;SDS011;33947;46.804;134.252;2023-12-22T17:11:53;22.42;;;15.07;;
46845;SDS011;33947;46.804;134.252;2023-12-22T17:15:07;18.63;;;13.02;;
46845;SDS011;33947;46.804;134.252;2023-12-22T17:18:17;23.00;;;11.98;;
46845;SDS011;33947;46.804;134.252;2023-12-22T17:21:28;38.83;;;13.77;;
46845;SDS011;33947;46.804;134.252;2023-12-22T17:24:35;23.50;;;14.02;;
46845;SDS011;33947;46.804;134.252;2023-12-22T17:27:47;7.78;;;7.03;;
46845;SDS011;33947;46.804;134.252;2023-12-22T17:30:54;15.32;;;9.75;;
46845;SDS011;33947;46.804;134.252;2023-12-22T17:34:04;23.52;;;9.68;;
46845;SDS011;33947;46.804;134.252;2023-12-22T17:37:12;9.63;;;6.00;;
46845;SDS011;33947;46.804;134.252;2023-12-22T17:40:22;4.40;;;3.75;;
46845;SDS011;33947;46.804;134.252;2023-12-22T17:43:34;10.23;;;3.42;;
46845;SDS011;33947;46.804;134.252;2023-12-22T17:46:44;28.90;;;5.53;;
46845;SDS011;33947;46.804;134.252;2023-12-22T17:49:54;2.65;;;2.55;;
46845;SDS011;33947;46.804;134.252;2023-12-22T17:53:06;16.38;;;8.80;;
46845;SDS011;33947;46.804;134.252;2023-12-22T17:56:13;11.40;;;8.63;;
46845;SDS011;33947;46.804;134.252;2023-12-22T17:59:22;17.85;;;12.82;;
46845;SDS011;33947;46.804;134.252;2023-12-22T18:02:29;15.27;;;10.43;;
46845;SDS011;33947;46.804;134.252;2023-12-22T18:05:40;17.75;;;11.77;;
46845;SDS011;33947;46.804;134.252;2023-12-22T18:08:48;23.50;;;12.13;;
46845;SDS011;33947;46.804;134.252;2023-12-22T18:11:55;30.10;;;14.15;;
46845;SDS011;33947;46.804;134.252;2023-12-22T18:15:02;15.32;;;9.48;;
46845;SDS011;33947;46.804;134.252;2023-12-22T18:18:10;21.33;;;11.23;;
46845;SDS011;33947;46.804;134.252;2023-12-22T18:21:20;9.82;;;5.75;;
46845;SDS011;33947;46.804;134.252;2023-12-22T18:24:30;26.35;;;10.40;;
46845;SDS011;33947;46.804;134.252;2023-12-22T18:28:09;8.98;;;8.05;;
46845;SDS011;33947;46.804;134.252;2023-12-22T18:31:20;26.95;;;13.13;;
46845;SDS011;33947;46.804;134.252;2023-12-22T18:34:30;29.88;;;17.33;;
46845;SDS011;33947;46.804;134.252;2023-12-22T18:37:43;6.75;;;5.95;;